Time;durP1;ratioP1;P1;durP2;ratioP2;P2;SDS_P1;SDS_P2;PMS_P1;PMS_P2;Temp;Humidity;BMP_temperature;BMP_pressure;BME280_temperature;BME280_humidity;BME280_pressure;Samples;Min_cycle;Max_cycle;Signal;HPM_P1;HPM_P2
2021/06/28 00:01:22;;;;;;;10.73;9.83;;;19.20;77.00;;;;;;5046447;28;20483;-77
2021/06/28 00:03:53;;;;;;;10.37;9.57;;;19.10;77.60;;;;;;5044134;28;20456;-77
2021/06/28 00:06:20;;;;;;;10.03;9.30;;;19.10;77.50;;;;;;5051342;28;20463;-75
2021/06/28 00:08:47;;;;;;;9.67;8.97;;;19.10;78.50;;;;;;5049664;28;20580;-76
2021/06/28 00:11:15;;;;;;;9.83;9.00;;;19.10;78.40;;;;;;5051773;28;20506;-75
2021/06/28 00:13:44;;;;;;;10.40;9.60;;;19.20;78.30;;;;;;5042907;28;20540;-76
2021/06/28 00:16:12;;;;;;;9.83;9.03;;;19.20;77.90;;;;;;5051591;28;20571;-76
2021/06/28 00:18:39;;;;;;;9.63;8.83;;;19.30;77.50;;;;;;5050087;28;21044;-76
2021/06/28 00:21:09;;;;;;;10.20;9.30;;;19.20;77.20;;;;;;5048335;28;20548;-77
2021/06/28 00:23:36;;;;;;;9.87;9.07;;;19.20;76.70;;;;;;5049055;28;20464;-76
2021/06/28 00:26:03;;;;;;;11.53;10.63;;;19.20;78.50;;;;;;5049126;28;20531;-76
2021/06/28 00:28:30;;;;;;;10.03;9.27;;;19.10;77.00;;;;;;5047090;28;20454;-77
2021/06/28 00:30:58;;;;;;;10.70;9.70;;;19.10;77.40;;;;;;5044243;28;20500;-77
2021/06/28 00:33:25;;;;;;;10.70;9.90;;;19.10;77.40;;;;;;5046973;28;20535;-77
2021/06/28 00:35:52;;;;;;;10.00;9.20;;;19.00;77.60;;;;;;5056802;28;20506;-78
2021/06/28 00:38:21;;;;;;;10.13;9.37;;;19.00;78.40;;;;;;5051053;28;20500;-78
2021/06/28 00:40:49;;;;;;;10.77;9.97;;;18.90;78.40;;;;;;5049666;28;20465;-76
2021/06/28 00:43:16;;;;;;;10.50;9.70;;;18.90;79.00;;;;;;5042323;28;20453;-76
2021/06/28 00:45:44;;;;;;;10.20;9.40;;;18.80;79.20;;;;;;5051246;28;20452;-76
2021/06/28 00:48:12;;;;;;;11.10;10.20;;;18.80;79.30;;;;;;5049349;28;20456;-79
2021/06/28 00:50:41;;;;;;;9.77;9.07;;;18.80;80.20;;;;;;5047611;28;20551;-78
2021/06/28 00:53:10;;;;;;;10.80;9.90;;;18.70;80.30;;;;;;5044711;28;20445;-78
2021/06/28 00:55:41;;;;;;;9.80;9.10;;;18.70;80.00;;;;;;5050775;28;21102;-76
2021/06/28 00:58:08;;;;;;;10.70;9.80;;;18.70;80.40;;;;;;5050982;28;20476;-76
2021/06/28 01:00:36;;;;;;;10.23;9.30;;;18.70;81.10;;;;;;5056290;28;20887;-76
2021/06/28 01:03:04;;;;;;;9.90;9.20;;;18.70;80.60;;;;;;5050805;28;20507;-76
2021/06/28 01:05:33;;;;;;;10.30;9.50;;;18.70;80.60;;;;;;5050172;28;20457;-76
2021/06/28 01:08:03;;;;;;;10.23;9.53;;;18.60;81.00;;;;;;5048488;28;20481;-77
2021/06/28 01:10:31;;;;;;;10.50;9.60;;;18.60;81.20;;;;;;5047695;28;20471;-77
2021/06/28 01:12:59;;;;;;;10.80;9.80;;;18.60;81.10;;;;;;5049851;28;20445;-77
2021/06/28 01:15:26;;;;;;;10.47;9.67;;;18.60;81.10;;;;;;5051205;28;20538;-76
2021/06/28 01:17:53;;;;;;;10.23;9.53;;;18.60;81.50;;;;;;5048961;28;20927;-76
2021/06/28 01:20:23;;;;;;;9.90;9.10;;;18.60;81.70;;;;;;5046712;28;20474;-77
2021/06/28 01:22:51;;;;;;;10.97;10.17;;;18.50;81.70;;;;;;5048126;28;20496;-76
2021/06/28 01:25:22;;;;;;;10.97;10.07;;;18.50;82.20;;;;;;5046933;28;20449;-78
2021/06/28 01:27:50;;;;;;;10.80;10.00;;;18.50;82.60;;;;;;5045221;28;20912;-77
2021/06/28 01:30:21;;;;;;;10.40;9.60;;;18.50;82.90;;;;;;5049257;28;20473;-77
2021/06/28 01:32:49;;;;;;;10.03;9.27;;;18.50;82.70;;;;;;5045063;28;20519;-76
2021/06/28 01:35:16;;;;;;;10.60;9.60;;;18.50;82.60;;;;;;5045889;28;20460;-76
2021/06/28 01:37:45;;;;;;;11.13;10.23;;;18.60;81.80;;;;;;5048259;28;21015;-77
2021/06/28 01:40:13;;;;;;;11.03;10.13;;;18.60;81.60;;;;;;5043487;28;20922;-77
2021/06/28 01:42:42;;;;;;;10.20;9.40;;;18.60;81.40;;;;;;5045098;28;20531;-77
2021/06/28 01:45:11;;;;;;;11.37;10.47;;;18.60;81.40;;;;;;5045843;28;20562;-77
2021/06/28 01:47:38;;;;;;;10.83;10.03;;;18.60;81.10;;;;;;5047860;28;20918;-76
2021/06/28 01:50:08;;;;;;;10.67;9.80;;;18.60;80.80;;;;;;5043811;28;20502;-77
2021/06/28 01:52:35;;;;;;;11.00;10.10;;;18.60;81.00;;;;;;5046550;28;20450;-76
2021/06/28 01:55:03;;;;;;;11.67;9.90;;;18.50;81.50;;;;;;5050393;28;20460;-79
2021/06/28 01:57:30;;;;;;;11.00;10.20;;;18.50;81.90;;;;;;5058976;28;20525;-77
2021/06/28 01:59:59;;;;;;;10.07;9.37;;;18.40;82.10;;;;;;5047233;28;20457;-76
2021/06/28 02:02:25;;;;;;;10.73;9.60;;;18.50;82.20;;;;;;5044895;28;20459;-77
2021/06/28 02:04:52;;;;;;;10.87;9.87;;;18.40;82.40;;;;;;5047073;28;20454;-77
2021/06/28 02:07:23;;;;;;;10.80;9.90;;;18.40;82.70;;;;;;5048473;28;20594;-78
2021/06/28 02:09:51;;;;;;;10.50;9.70;;;18.30;82.80;;;;;;5052115;28;20485;-79
2021/06/28 02:12:18;;;;;;;11.10;10.20;;;18.30;83.30;;;;;;5047687;28;20515;-77
2021/06/28 02:14:45;;;;;;;11.53;10.63;;;18.30;83.90;;;;;;5052754;28;20530;-77
2021/06/28 02:17:13;;;;;;;12.10;11.10;;;18.20;84.40;;;;;;5049310;28;20514;-77
2021/06/28 02:19:40;;;;;;;11.67;10.67;;;18.20;84.50;;;;;;5056628;28;20500;-77
2021/06/28 02:22:07;;;;;;;11.17;10.20;;;18.20;84.50;;;;;;5049300;28;20515;-77
2021/06/28 02:24:34;;;;;;;13.17;12.07;;;18.20;84.40;;;;;;5052078;28;20484;-77
2021/06/28 02:27:01;;;;;;;12.43;11.43;;;18.10;84.70;;;;;;5050700;28;20469;-78
2021/06/28 02:29:28;;;;;;;11.83;10.83;;;18.10;84.90;;;;;;5052323;28;20449;-77
2021/06/28 02:31:55;;;;;;;12.57;11.33;;;18.10;85.10;;;;;;5048939;28;21069;-77
2021/06/28 02:34:23;;;;;;;11.83;10.93;;;18.10;85.40;;;;;;5054224;28;20479;-78
2021/06/28 02:36:50;;;;;;;13.20;12.10;;;18.00;85.50;;;;;;5052733;28;20777;-78
2021/06/28 02:39:17;;;;;;;12.47;11.47;;;18.00;85.80;;;;;;5040459;28;20451;-77
2021/06/28 02:41:43;;;;;;;13.63;12.53;;;17.90;85.90;;;;;;5063710;28;20457;-78
2021/06/28 02:44:10;;;;;;;11.87;10.77;;;18.00;86.20;;;;;;5053033;28;20848;-77
2021/06/28 02:46:37;;;;;;;12.43;11.53;;;17.90;86.70;;;;;;5055290;28;20941;-77
2021/06/28 02:49:05;;;;;;;11.70;10.90;;;17.90;87.00;;;;;;5053933;28;20455;-77
2021/06/28 02:51:33;;;;;;;11.67;10.77;;;17.90;87.20;;;;;;5053057;28;20483;-77
2021/06/28 02:54:00;;;;;;;11.80;10.80;;;17.90;87.30;;;;;;5046505;28;20476;-77
2021/06/28 02:56:26;;;;;;;11.77;10.80;;;17.90;87.40;;;;;;5052770;28;20491;-77
2021/06/28 02:58:55;;;;;;;13.17;12.17;;;17.90;87.40;;;;;;5044875;28;21019;-77
2021/06/28 03:01:24;;;;;;;12.17;11.27;;;18.00;87.20;;;;;;5053558;28;20958;-77
2021/06/28 03:03:52;;;;;;;11.77;10.77;;;18.00;87.00;;;;;;5049943;28;20859;-77
2021/06/28 03:06:20;;;;;;;12.50;11.50;;;18.00;86.50;;;;;;5051486;28;21194;-77
2021/06/28 03:08:49;;;;;;;12.50;11.50;;;17.90;87.00;;;;;;5053436;28;20464;-77
2021/06/28 03:11:17;;;;;;;13.07;12.07;;;17.80;88.30;;;;;;5055447;28;20456;-78
2021/06/28 03:13:45;;;;;;;12.90;11.80;;;17.90;87.80;;;;;;5047850;28;20448;-77
2021/06/28 03:16:11;;;;;;;14.23;13.13;;;17.90;87.60;;;;;;5049781;28;20464;-77
2021/06/28 03:18:39;;;;;;;12.73;11.67;;;17.80;88.20;;;;;;5046773;28;20520;-77
2021/06/28 03:21:07;;;;;;;12.93;11.93;;;17.70;88.60;;;;;;5049125;28;20473;-77
2021/06/28 03:23:34;;;;;;;12.43;11.37;;;17.70;88.80;;;;;;5048773;28;21064;-77
2021/06/28 03:26:03;;;;;;;12.50;11.50;;;17.60;89.70;;;;;;5044428;28;20456;-78
2021/06/28 03:28:30;;;;;;;14.70;13.60;;;17.70;89.50;;;;;;5050846;28;20436;-78
2021/06/28 03:30:57;;;;;;;13.33;12.20;;;17.60;89.80;;;;;;5046023;28;20481;-78
2021/06/28 03:33:24;;;;;;;13.53;12.33;;;17.70;90.30;;;;;;5043717;28;20761;-77
2021/06/28 03:35:51;;;;;;;13.77;12.50;;;17.70;90.00;;;;;;5046612;28;20522;-77
2021/06/28 03:38:19;;;;;;;13.20;11.80;;;17.80;89.70;;;;;;5048713;28;20451;-78
2021/06/28 03:40:45;;;;;;;12.03;10.83;;;17.80;89.60;;;;;;5045296;28;20464;-77
2021/06/28 03:43:14;;;;;;;13.10;12.10;;;17.70;89.90;;;;;;5049927;28;20498;-78
2021/06/28 03:45:41;;;;;;;15.37;14.07;;;17.90;90.10;;;;;;5041910;28;20531;-78
2021/06/28 03:48:10;;;;;;;12.47;11.47;;;17.90;89.20;;;;;;5049488;28;20502;-78
2021/06/28 03:50:38;;;;;;;13.30;12.03;;;18.00;88.90;;;;;;5047784;28;20505;-78
2021/06/28 03:53:05;;;;;;;12.77;11.70;;;18.20;87.80;;;;;;5044178;28;20488;-77
2021/06/28 03:55:32;;;;;;;13.67;12.27;;;18.30;87.00;;;;;;5059996;28;20457;-77
2021/06/28 03:57:59;;;;;;;13.23;11.97;;;18.40;86.20;;;;;;5050428;28;20457;-78
2021/06/28 04:00:29;;;;;;;13.50;12.40;;;18.50;85.40;;;;;;5050088;28;20537;-78
2021/06/28 04:02:57;;;;;;;14.47;12.97;;;18.60;84.50;;;;;;5049554;28;20507;-77
2021/06/28 04:05:25;;;;;;;14.43;13.03;;;18.70;83.90;;;;;;5051219;28;20471;-77
2021/06/28 04:07:52;;;;;;;14.40;12.80;;;18.70;83.70;;;;;;5051639;28;20446;-78
2021/06/28 04:10:21;;;;;;;15.83;14.43;;;18.70;83.60;;;;;;5055473;28;20932;-78
2021/06/28 04:12:50;;;;;;;14.17;12.87;;;18.70;83.80;;;;;;5054153;28;20447;-78
2021/06/28 04:15:18;;;;;;;14.83;13.57;;;18.70;83.80;;;;;;5052795;28;20455;-78
2021/06/28 04:17:47;;;;;;;15.60;14.00;;;18.90;82.90;;;;;;5048025;28;20854;-77
2021/06/28 04:20:17;;;;;;;12.90;11.77;;;19.00;82.10;;;;;;5055109;28;20475;-77
2021/06/28 04:22:45;;;;;;;13.30;12.00;;;19.10;81.50;;;;;;5045564;28;20537;-77
2021/06/28 04:25:15;;;;;;;13.00;11.80;;;19.10;80.50;;;;;;5040235;28;20843;-77
2021/06/28 04:27:42;;;;;;;12.70;11.80;;;19.20;80.40;;;;;;5052511;28;20537;-78
2021/06/28 04:30:11;;;;;;;13.10;11.93;;;19.20;79.80;;;;;;5049866;28;20971;-78
2021/06/28 04:32:39;;;;;;;12.97;11.83;;;19.40;79.20;;;;;;5050019;28;20804;-78
2021/06/28 04:35:10;;;;;;;13.13;12.07;;;19.50;78.50;;;;;;5047924;28;20572;-77
2021/06/28 04:37:37;;;;;;;12.97;11.90;;;19.50;77.30;;;;;;5042146;28;20465;-77
2021/06/28 04:40:04;;;;;;;13.73;12.63;;;19.50;77.50;;;;;;5052103;28;20446;-78
2021/06/28 04:42:31;;;;;;;12.63;11.43;;;19.40;77.80;;;;;;5054037;28;20448;-78
2021/06/28 04:44:58;;;;;;;13.13;12.13;;;19.60;77.00;;;;;;5051855;28;20506;-78
2021/06/28 04:47:25;;;;;;;13.70;12.50;;;19.50;76.40;;;;;;5056190;28;20452;-77
2021/06/28 04:49:52;;;;;;;12.60;11.50;;;19.30;77.50;;;;;;5050257;28;20885;-78
2021/06/28 04:52:20;;;;;;;12.60;11.70;;;19.10;78.10;;;;;;5046946;28;20451;-78
2021/06/28 04:54:47;;;;;;;12.83;11.60;;;19.10;78.60;;;;;;5049984;28;20489;-77
2021/06/28 04:57:16;;;;;;;13.83;12.80;;;19.00;78.70;;;;;;5050039;28;20466;-78
2021/06/28 04:59:43;;;;;;;14.33;11.50;;;19.00;79.30;;;;;;5049746;28;20453;-78
2021/06/28 05:02:10;;;;;;;13.10;12.10;;;18.90;79.50;;;;;;5052068;28;20820;-78
2021/06/28 05:04:37;;;;;;;13.43;12.03;;;18.80;80.00;;;;;;5056004;28;20689;-77
2021/06/28 05:07:04;;;;;;;13.53;12.33;;;18.90;80.20;;;;;;5053437;28;20460;-75
2021/06/28 05:09:32;;;;;;;27.53;13.60;;;18.90;80.00;;;;;;5046306;28;20480;-78
2021/06/28 05:11:59;;;;;;;13.10;12.00;;;18.90;80.20;;;;;;5050016;28;20515;-78
2021/06/28 05:14:27;;;;;;;12.97;11.80;;;18.90;80.20;;;;;;5045959;28;20479;-78
2021/06/28 05:16:54;;;;;;;13.10;12.10;;;19.20;79.70;;;;;;5048233;28;20543;-77
2021/06/28 05:19:21;;;;;;;12.70;11.60;;;19.20;78.50;;;;;;5043788;28;20460;-78
2021/06/28 05:21:47;;;;;;;13.43;12.30;;;19.20;78.20;;;;;;5045381;28;21026;-76
2021/06/28 05:24:14;;;;;;;13.50;12.10;;;19.20;77.70;;;;;;5049058;28;20541;-78
2021/06/28 05:26:43;;;;;;;15.43;13.23;;;19.20;77.90;;;;;;5056334;28;20824;-77
2021/06/28 05:29:10;;;;;;;13.47;12.27;;;19.30;77.20;;;;;;5046030;28;20586;-77
2021/06/28 05:31:36;;;;;;;14.67;11.87;;;19.40;77.30;;;;;;5039147;28;20511;-77
2021/06/28 05:34:03;;;;;;;13.87;12.67;;;19.30;77.20;;;;;;5046468;28;20460;-77
2021/06/28 05:36:31;;;;;;;12.40;11.40;;;19.30;77.50;;;;;;5049365;28;20994;-78
2021/06/28 05:38:58;;;;;;;12.40;11.30;;;19.50;77.40;;;;;;5045325;28;20453;-77
2021/06/28 05:41:24;;;;;;;13.07;11.97;;;19.50;76.90;;;;;;5052187;28;20654;-77
2021/06/28 05:43:53;;;;;;;12.60;11.60;;;19.60;76.70;;;;;;5051456;28;20453;-79
2021/06/28 05:46:20;;;;;;;12.00;10.90;;;20.20;75.60;;;;;;5053410;28;20452;-77
2021/06/28 05:48:46;;;;;;;11.17;10.20;;;21.50;72.60;;;;;;5049743;28;20545;-79
2021/06/28 05:51:13;;;;;;;11.30;10.20;;;22.20;69.60;;;;;;5049060;28;21560;-77
2021/06/28 05:53:43;;;;;;;10.70;9.50;;;21.90;69.10;;;;;;5050349;28;20444;-78
2021/06/28 05:56:10;;;;;;;10.90;9.97;;;21.50;69.20;;;;;;5046390;28;20763;-78
2021/06/28 05:58:37;;;;;;;11.83;10.77;;;21.30;69.50;;;;;;5044668;28;20460;-78
2021/06/28 06:01:06;;;;;;;11.83;10.93;;;20.90;70.10;;;;;;5045046;28;20469;-77
2021/06/28 06:03:33;;;;;;;11.77;10.73;;;20.60;70.90;;;;;;5051904;28;20467;-76
2021/06/28 06:06:00;;;;;;;11.57;10.57;;;20.60;71.50;;;;;;5047069;28;20480;-78
2021/06/28 06:08:27;;;;;;;11.43;10.23;;;20.60;71.50;;;;;;5044174;28;20510;-79
2021/06/28 06:10:55;;;;;;;11.73;10.83;;;20.90;71.30;;;;;;5057505;28;20451;-78
2021/06/28 06:13:22;;;;;;;11.40;10.40;;;21.20;70.80;;;;;;5055333;28;20486;-79
2021/06/28 06:15:50;;;;;;;11.93;10.87;;;21.30;71.00;;;;;;5061885;28;20502;-80
2021/06/28 06:18:18;;;;;;;10.80;9.90;;;21.80;70.30;;;;;;5050820;28;20489;-79
2021/06/28 06:20:46;;;;;;;10.83;9.83;;;22.50;69.30;;;;;;5049922;28;20484;-80
2021/06/28 06:23:14;;;;;;;11.60;10.60;;;22.70;68.60;;;;;;5055966;28;20450;-78
2021/06/28 06:25:43;;;;;;;10.67;9.67;;;22.60;67.80;;;;;;5056984;28;20441;-78
2021/06/28 06:28:11;;;;;;;10.97;10.03;;;22.20;68.20;;;;;;5052131;28;20556;-79
2021/06/28 06:30:38;;;;;;;12.10;10.73;;;22.20;68.40;;;;;;5050830;28;20949;-79
2021/06/28 06:33:05;;;;;;;12.00;10.90;;;22.00;68.80;;;;;;5052915;28;20456;-78
2021/06/28 06:35:34;;;;;;;10.87;9.70;;;22.10;68.90;;;;;;5055700;28;20934;-83
2021/06/28 06:38:01;;;;;;;11.37;10.20;;;22.30;68.50;;;;;;5064861;28;20821;-83
2021/06/28 06:40:29;;;;;;;11.90;10.70;;;22.20;68.20;;;;;;5068011;28;20536;-78
2021/06/28 06:42:57;;;;;;;12.23;10.50;;;22.30;68.70;;;;;;5058652;28;20936;-78
2021/06/28 06:45:25;;;;;;;11.57;10.37;;;22.30;68.50;;;;;;5058230;28;20457;-77
2021/06/28 06:47:52;;;;;;;10.63;9.73;;;22.20;68.10;;;;;;5054305;28;20448;-78
2021/06/28 06:50:19;;;;;;;11.40;10.20;;;22.30;68.10;;;;;;5054391;28;20458;-77
2021/06/28 06:52:47;;;;;;;11.40;10.27;;;22.30;68.40;;;;;;5050397;28;20516;-77
2021/06/28 06:55:15;;;;;;;9.93;9.00;;;22.70;68.50;;;;;;5040884;28;20466;-78
2021/06/28 06:57:43;;;;;;;9.17;8.40;;;22.80;67.50;;;;;;5054221;28;20460;-78
2021/06/28 07:00:13;;;;;;;10.30;9.30;;;22.90;67.30;;;;;;5054228;28;20448;-78
2021/06/28 07:02:40;;;;;;;9.67;8.77;;;23.20;67.30;;;;;;5056096;28;20473;-77
2021/06/28 07:05:08;;;;;;;10.20;9.30;;;23.20;67.00;;;;;;5050903;28;20816;-77
2021/06/28 07:07:36;;;;;;;9.93;9.00;;;23.30;66.70;;;;;;5060687;28;20455;-76
2021/06/28 07:10:06;;;;;;;9.30;8.60;;;23.20;66.10;;;;;;5048291;28;20549;-77
2021/06/28 07:12:33;;;;;;;9.47;8.77;;;23.10;66.60;;;;;;5051464;28;20440;-77
2021/06/28 07:15:00;;;;;;;8.97;7.60;;;23.20;66.80;;;;;;5057975;28;20490;-78
2021/06/28 07:17:27;;;;;;;9.10;8.40;;;23.50;66.70;;;;;;5050405;28;20480;-76
2021/06/28 07:19:54;;;;;;;8.13;7.53;;;23.70;66.20;;;;;;5045313;28;20449;-77
2021/06/28 07:22:21;;;;;;;8.37;7.80;;;24.00;65.50;;;;;;5047722;28;20471;-78
2021/06/28 07:24:48;;;;;;;9.60;8.77;;;24.20;64.60;;;;;;5047839;28;20462;-78
2021/06/28 07:27:16;;;;;;;9.17;8.47;;;24.20;65.10;;;;;;5048958;28;20481;-78
2021/06/28 07:29:43;;;;;;;8.47;7.87;;;24.40;64.50;;;;;;5043911;28;21312;-78
2021/06/28 07:32:11;;;;;;;8.80;8.17;;;24.50;64.10;;;;;;5047946;28;20477;-79
2021/06/28 07:34:38;;;;;;;8.23;7.63;;;24.50;64.00;;;;;;5058676;28;20866;-78
2021/06/28 07:37:05;;;;;;;8.70;8.00;;;24.60;64.00;;;;;;5055192;28;21010;-78
2021/06/28 07:39:32;;;;;;;8.27;7.67;;;24.80;64.00;;;;;;5049059;28;20478;-77
2021/06/28 07:41:59;;;;;;;8.57;7.97;;;24.90;63.20;;;;;;5053651;28;21056;-78
2021/06/28 07:44:27;;;;;;;8.50;7.77;;;24.70;63.00;;;;;;5057504;28;20484;-79
2021/06/28 07:46:54;;;;;;;9.13;8.33;;;24.70;63.30;;;;;;5063205;28;20444;-79
2021/06/28 07:49:21;;;;;;;9.20;8.50;;;24.80;63.10;;;;;;5059014;28;20459;-78
2021/06/28 07:51:48;;;;;;;8.10;7.50;;;24.90;63.10;;;;;;5054764;28;20509;-80
2021/06/28 07:54:17;;;;;;;8.83;8.23;;;24.90;63.00;;;;;;5060821;28;20454;-79
2021/06/28 07:56:44;;;;;;;8.63;7.93;;;25.00;62.90;;;;;;5062538;28;20458;-78
2021/06/28 07:59:11;;;;;;;7.67;7.00;;;25.30;62.80;;;;;;5052147;28;20446;-79
2021/06/28 08:01:40;;;;;;;8.07;7.53;;;25.30;61.80;;;;;;5052366;28;20475;-78
2021/06/28 08:04:07;;;;;;;7.60;7.10;;;25.40;61.90;;;;;;5045581;28;20475;-78
2021/06/28 08:06:35;;;;;;;8.47;7.80;;;25.50;61.40;;;;;;5047207;28;20446;-79
2021/06/28 08:09:02;;;;;;;7.83;7.33;;;25.60;61.50;;;;;;5051740;28;20542;-79
2021/06/28 08:11:30;;;;;;;9.90;9.07;;;25.80;61.30;;;;;;5054773;28;20448;-79
2021/06/28 08:13:57;;;;;;;7.40;6.80;;;26.10;60.90;;;;;;5058926;28;20926;-79
2021/06/28 08:16:25;;;;;;;7.87;7.37;;;26.10;60.00;;;;;;5060748;28;20490;-81
2021/06/28 08:18:53;;;;;;;7.10;6.60;;;26.20;59.70;;;;;;5068912;28;20455;-80
2021/06/28 08:21:21;;;;;;;7.60;7.00;;;26.30;59.80;;;;;;5063699;28;20472;-79
2021/06/28 08:23:48;;;;;;;7.43;6.93;;;26.40;59.90;;;;;;5059717;28;20468;-79
2021/06/28 08:26:16;;;;;;;8.13;7.50;;;26.40;59.50;;;;;;5054621;28;20530;-79
2021/06/28 08:28:45;;;;;;;8.27;7.77;;;26.50;59.90;;;;;;5062087;28;20743;-79
2021/06/28 08:31:13;;;;;;;8.27;7.60;;;26.50;59.70;;;;;;5059008;28;20503;-79
2021/06/28 08:33:40;;;;;;;8.00;7.40;;;26.10;59.90;;;;;;5051343;28;20487;-79
2021/06/28 08:36:09;;;;;;;7.57;6.97;;;26.20;60.80;;;;;;5050221;28;20443;-78
2021/06/28 08:38:36;;;;;;;7.43;6.83;;;26.40;59.80;;;;;;5055251;28;20450;-79
2021/06/28 08:41:04;;;;;;;8.10;7.30;;;26.30;59.40;;;;;;5057004;28;20456;-79
2021/06/28 08:43:31;;;;;;;7.50;7.00;;;26.20;59.50;;;;;;5055872;28;20467;-79
2021/06/28 08:45:58;;;;;;;7.47;6.97;;;26.40;59.60;;;;;;5056401;28;20443;-79
2021/06/28 08:48:26;;;;;;;7.40;6.80;;;26.60;59.40;;;;;;5057025;28;20460;-79
2021/06/28 08:50:55;;;;;;;7.60;7.03;;;26.90;58.80;;;;;;5064725;28;20457;-79
2021/06/28 08:53:23;;;;;;;7.47;6.97;;;26.70;58.70;;;;;;5052249;28;20551;-79
2021/06/28 08:55:52;;;;;;;7.53;6.83;;;26.90;58.60;;;;;;5058416;28;20461;-78
2021/06/28 08:58:20;;;;;;;7.03;6.53;;;27.00;58.60;;;;;;5047695;28;20456;-79
2021/06/28 09:00:48;;;;;;;7.00;6.57;;;27.10;58.40;;;;;;5051885;28;20490;-78
2021/06/28 09:03:24;;;;;;;6.23;5.80;;;27.30;58.60;;;;;;5045926;28;20504;-80
2021/06/28 09:05:59;;;;;;;6.27;5.87;;;27.00;57.40;;;;;;5047903;28;20464;-79
2021/06/28 09:08:28;;;;;;;9.23;6.13;;;27.00;57.80;;;;;;5051881;28;20473;-78
2021/06/28 09:10:55;;;;;;;7.50;7.00;;;27.00;57.70;;;;;;5050637;28;20480;-80
2021/06/28 09:13:37;;;;;;;6.50;6.10;;;27.10;57.80;;;;;;5057628;28;20465;-80
2021/06/28 09:16:22;;;;;;;8.23;5.73;;;27.10;57.20;;;;;;5064669;28;20487;-80
2021/06/28 09:18:58;;;;;;;6.50;5.90;;;27.30;57.00;;;;;;5059964;28;20522;-81
2021/06/28 09:21:51;;;;;;;6.70;6.10;;;27.00;57.10;;;;;;5043181;28;20480;-80
2021/06/28 09:24:27;;;;;;;6.60;6.00;;;27.50;57.50;;;;;;5055037;28;20477;-80
2021/06/28 09:26:56;;;;;;;6.63;6.13;;;27.80;57.20;;;;;;5068011;28;20445;-80
2021/06/28 09:29:34;;;;;;;5.90;5.40;;;28.00;57.20;;;;;;5060403;28;20487;-77
2021/06/28 09:32:09;;;;;;;6.53;5.93;;;27.70;56.90;;;;;;5047170;28;20454;-78
2021/06/28 09:34:36;;;;;;;6.50;6.10;;;28.10;57.00;;;;;;5052595;28;20464;-79
2021/06/28 09:37:04;;;;;;;6.37;5.97;;;28.30;56.80;;;;;;5065128;28;20486;-79
2021/06/28 09:39:40;;;;;;;6.60;6.00;;;28.30;56.60;;;;;;5045731;28;20458;-79
2021/06/28 09:42:13;;;;;;;5.43;5.13;;;28.40;56.00;;;;;;5053072;28;20496;-79
2021/06/28 09:44:51;;;;;;;5.30;5.00;;;28.00;55.20;;;;;;5055890;28;20476;-79
2021/06/28 09:47:21;;;;;;;5.67;5.17;;;28.20;55.60;;;;;;5055264;28;20440;-80
2021/06/28 09:50:01;;;;;;;4.80;4.50;;;28.10;55.30;;;;;;5046273;28;20979;-80
2021/06/28 09:52:33;;;;;;;5.13;4.83;;;28.30;54.80;;;;;;5047486;28;20453;-78
2021/06/28 09:55:15;;;;;;;5.13;4.83;;;28.10;55.20;;;;;;5044602;28;20457;-78
2021/06/28 09:58:10;;;;;;;5.13;4.83;;;28.20;55.60;;;;;;5047287;28;20451;-79
2021/06/28 10:00:39;;;;;;;4.63;4.33;;;28.40;54.70;;;;;;5052425;28;20538;-78
2021/06/28 10:03:06;;;;;;;5.00;4.70;;;28.50;54.80;;;;;;5053888;28;20469;-78
2021/06/28 10:05:37;;;;;;;5.30;4.80;;;28.60;54.50;;;;;;5045764;28;20457;-80
2021/06/28 10:08:14;;;;;;;5.07;4.77;;;28.60;54.40;;;;;;5044053;28;20545;-78
2021/06/28 10:10:43;;;;;;;5.60;4.87;;;28.70;54.20;;;;;;5043269;28;20536;-79
2021/06/28 10:13:10;;;;;;;4.83;4.53;;;29.00;54.20;;;;;;5052127;28;20457;-79
2021/06/28 10:15:40;;;;;;;8.00;4.80;;;29.00;54.00;;;;;;5052530;28;20796;-79
2021/06/28 10:18:09;;;;;;;5.80;5.33;;;29.00;54.10;;;;;;5055390;28;20461;-79
2021/06/28 10:20:41;;;;;;;5.23;4.80;;;29.00;53.90;;;;;;5046245;28;20554;-79
2021/06/28 10:23:09;;;;;;;4.47;4.27;;;29.00;53.70;;;;;;5060026;28;21011;-78
2021/06/28 10:25:38;;;;;;;4.13;3.87;;;28.80;53.40;;;;;;5067125;28;20476;-79
2021/06/28 10:28:06;;;;;;;4.50;4.10;;;28.70;53.00;;;;;;5053604;28;20460;-77
2021/06/28 10:30:33;;;;;;;4.47;4.17;;;28.90;53.30;;;;;;5053369;28;20462;-78
2021/06/28 10:33:07;;;;;;;4.43;4.03;;;28.80;53.20;;;;;;5056575;28;20503;-79
2021/06/28 10:35:36;;;;;;;4.50;4.20;;;28.90;52.90;;;;;;5059005;28;20527;-80
2021/06/28 10:38:06;;;;;;;3.93;3.73;;;28.90;52.80;;;;;;5055654;28;20472;-79
2021/06/28 10:40:54;;;;;;;3.77;3.57;;;28.80;52.20;;;;;;5051951;28;20484;-78
2021/06/28 10:43:29;;;;;;;4.87;4.47;;;29.00;53.10;;;;;;5055810;28;20465;-81
2021/06/28 10:45:56;;;;;;;4.30;4.00;;;29.20;52.20;;;;;;5069133;28;20505;-81
2021/06/28 10:48:26;;;;;;;4.87;4.57;;;29.10;52.00;;;;;;5055901;28;20446;-80
2021/06/28 10:51:02;;;;;;;5.37;4.00;;;29.20;52.30;;;;;;5064324;28;20469;-78
2021/06/28 10:54:00;;;;;;;4.13;3.93;;;29.40;52.10;;;;;;5058386;28;20441;-78
2021/06/28 10:57:02;;;;;;;5.00;4.70;;;29.70;51.80;;;;;;5052162;28;20572;-78
2021/06/28 10:59:32;;;;;;;4.00;3.80;;;29.80;52.20;;;;;;5061343;28;20509;-78
2021/06/28 11:02:04;;;;;;;5.00;4.70;;;29.70;51.80;;;;;;5061683;28;20499;-78
2021/06/28 11:04:33;;;;;;;4.53;4.13;;;29.70;52.30;;;;;;5047798;28;20826;-78
2021/06/28 11:07:06;;;;;;;4.60;4.30;;;29.70;51.70;;;;;;5047149;28;20549;-79
2021/06/28 11:09:35;;;;;;;4.00;3.70;;;29.80;51.90;;;;;;5052633;28;20442;-77
2021/06/28 11:12:04;;;;;;;3.97;3.63;;;29.80;51.40;;;;;;5059445;28;20480;-79
2021/06/28 11:14:49;;;;;;;4.70;4.30;;;30.00;50.90;;;;;;5057930;28;20470;-77
2021/06/28 11:17:20;;;;;;;3.90;3.70;;;29.80;50.40;;;;;;5059292;28;20504;-78
2021/06/28 11:19:51;;;;;;;3.90;3.70;;;29.60;50.30;;;;;;5054094;28;20450;-78
2021/06/28 11:22:35;;;;;;;3.87;3.67;;;29.80;51.20;;;;;;5057353;28;20559;-77
2021/06/28 11:25:12;;;;;;;4.07;3.77;;;30.30;50.10;;;;;;5058827;28;20471;-81
2021/06/28 11:27:42;;;;;;;4.43;4.13;;;30.60;50.70;;;;;;5059218;28;20460;-79
2021/06/28 11:30:26;;;;;;;4.60;4.30;;;30.50;51.10;;;;;;5065790;28;20442;-81
2021/06/28 11:33:05;;;;;;;4.87;4.30;;;30.80;51.30;;;;;;5064498;28;20454;-80
2021/06/28 11:35:40;;;;;;;4.80;4.33;;;31.00;51.10;;;;;;5070860;28;20441;-82
2021/06/28 11:38:19;;;;;;;4.73;4.33;;;30.80;51.40;;;;;;5060287;28;20442;-80
2021/06/28 11:40:51;;;;;;;5.67;3.80;;;31.10;51.40;;;;;;5076281;28;20513;-80
2021/06/28 11:43:41;;;;;;;4.63;4.33;;;31.10;50.10;;;;;;5071970;28;20533;-80
2021/06/28 11:46:11;;;;;;;4.23;3.93;;;30.50;50.50;;;;;;5071332;28;20464;-82
2021/06/28 11:48:41;;;;;;;4.23;3.97;;;29.90;50.20;;;;;;5073389;28;20513;-81
2021/06/28 11:51:14;;;;;;;4.37;4.07;;;30.30;50.30;;;;;;5088504;28;20635;-84
2021/06/28 11:53:42;;;;;;;3.80;3.60;;;30.40;51.00;;;;;;5070955;28;20452;-81
2021/06/28 11:56:23;;;;;;;4.00;3.70;;;30.70;50.40;;;;;;5068194;28;20498;-81
2021/06/28 11:58:54;;;;;;;4.67;4.37;;;31.00;50.40;;;;;;5071361;28;20485;-82
2021/06/28 12:01:24;;;;;;;4.77;4.47;;;30.70;50.20;;;;;;5065696;28;20449;-80
2021/06/28 12:03:51;;;;;;;4.13;3.73;;;30.50;51.00;;;;;;5065478;28;20450;-81
2021/06/28 12:06:18;;;;;;;4.50;4.20;;;30.80;51.50;;;;;;5067415;28;20445;-79
2021/06/28 12:08:46;;;;;;;4.40;4.10;;;30.60;50.60;;;;;;5064234;28;20525;-80
2021/06/28 12:17:18;;;;;;;4.83;4.43;;;30.90;50.30;;;;;;5042041;28;20518;-77
2021/06/28 12:19:49;;;;;;;4.30;4.00;;;30.80;50.30;;;;;;5056432;28;20538;-76
2021/06/28 12:22:19;;;;;;;4.00;3.70;;;30.70;50.50;;;;;;5056562;28;20516;-78
2021/06/28 12:24:49;;;;;;;4.07;3.83;;;31.00;51.00;;;;;;5064847;28;20543;-80
2021/06/28 12:27:19;;;;;;;4.03;3.83;;;31.00;50.10;;;;;;5065564;28;20458;-83
2021/06/28 12:29:47;;;;;;;4.17;3.87;;;31.20;49.70;;;;;;5061924;28;20507;-78
2021/06/28 12:32:22;;;;;;;4.53;4.13;;;30.90;49.60;;;;;;5058586;28;20461;-81
2021/06/28 12:34:54;;;;;;;4.30;4.00;;;30.70;49.10;;;;;;5063303;28;20503;-80
2021/06/28 12:37:23;;;;;;;4.50;4.10;;;30.80;49.40;;;;;;5061085;28;20467;-80
2021/06/28 12:39:50;;;;;;;3.93;3.73;;;30.80;50.00;;;;;;5062627;28;20511;-80
2021/06/28 12:42:19;;;;;;;4.17;3.97;;;30.90;49.50;;;;;;5052056;28;20475;-81
2021/06/28 12:44:47;;;;;;;4.07;3.87;;;30.90;49.40;;;;;;5056673;28;20442;-80
2021/06/28 12:47:18;;;;;;;3.97;3.67;;;31.10;49.40;;;;;;5058470;28;20457;-80
2021/06/28 12:49:46;;;;;;;3.47;3.27;;;31.10;48.40;;;;;;5052736;28;20442;-80
2021/06/28 12:52:33;;;;;;;4.00;3.77;;;30.80;48.30;;;;;;5062660;28;20446;-82
2021/06/28 12:55:12;;;;;;;3.43;3.23;;;30.70;48.60;;;;;;5062809;28;20520;-80